Time;durP1;ratioP1;P1;durP2;ratioP2;P2;SDS_P1;SDS_P2;PMS_P1;PMS_P2;Temp;Humidity;BMP_temperature;BMP_pressure;BME280_temperature;BME280_humidity;BME280_pressure;Samples;Min_cycle;Max_cycle;Signal;HPM_P1;HPM_P2
2021/10/14 00:01:24;;;;;;;17.77;16.40;;;6.40;99.90;;;;;;5073664;28;20454;-76
2021/10/14 00:03:50;;;;;;;18.53;17.10;;;6.40;99.90;;;;;;5073550;28;20486;-79
2021/10/14 00:06:17;;;;;;;19.00;17.70;;;6.30;99.90;;;;;;5073730;28;20840;-77
2021/10/14 00:08:45;;;;;;;18.13;16.93;;;6.30;99.90;;;;;;5073525;28;20717;-77
2021/10/14 00:11:11;;;;;;;19.27;17.87;;;6.30;99.90;;;;;;5073474;28;20457;-77
2021/10/14 00:13:38;;;;;;;18.87;17.47;;;6.30;99.90;;;;;;5073452;28;20455;-78
2021/10/14 00:16:05;;;;;;;18.97;17.27;;;6.30;99.90;;;;;;5073324;28;20457;-77
2021/10/14 00:18:32;;;;;;;17.57;16.40;;;6.30;99.90;;;;;;5073354;28;20450;-77
2021/10/14 00:20:58;;;;;;;18.90;17.53;;;6.20;99.90;;;;;;5073247;28;20475;-79
2021/10/14 00:23:25;;;;;;;19.80;18.40;;;6.20;99.90;;;;;;5072810;28;20456;-80
2021/10/14 00:25:53;;;;;;;19.63;18.30;;;6.20;99.90;;;;;;5073249;28;20486;-78
2021/10/14 00:28:21;;;;;;;19.13;17.43;;;6.20;99.90;;;;;;5073119;28;20478;-78
2021/10/14 00:30:47;;;;;;;19.27;17.90;;;6.10;99.90;;;;;;5073276;28;20469;-80
2021/10/14 00:33:14;;;;;;;19.60;18.03;;;6.10;99.90;;;;;;5073113;28;20482;-81
2021/10/14 00:35:41;;;;;;;18.17;16.87;;;6.10;99.90;;;;;;5072894;28;20512;-78
2021/10/14 00:38:07;;;;;;;17.07;15.80;;;6.10;99.90;;;;;;5072951;28;20461;-81
2021/10/14 00:40:34;;;;;;;18.13;16.93;;;6.10;99.90;;;;;;5073013;28;20451;-81
2021/10/14 00:43:02;;;;;;;17.90;16.50;;;6.10;99.90;;;;;;5072804;28;20461;-80
2021/10/14 00:45:29;;;;;;;17.57;16.37;;;6.10;99.90;;;;;;5072797;28;20492;-80
2021/10/14 00:47:56;;;;;;;20.07;18.30;;;6.10;99.90;;;;;;5072835;28;20955;-80
2021/10/14 00:50:23;;;;;;;19.20;17.70;;;6.10;99.90;;;;;;5072695;28;20963;-81
2021/10/14 00:52:52;;;;;;;19.80;18.30;;;6.10;99.90;;;;;;5072697;28;20443;-81
2021/10/14 00:55:20;;;;;;;19.40;18.07;;;6.10;99.90;;;;;;5072738;28;20497;-81
2021/10/14 00:57:47;;;;;;;18.20;17.00;;;6.10;99.90;;;;;;5072610;28;20451;-80
2021/10/14 01:00:15;;;;;;;18.10;16.80;;;6.10;99.90;;;;;;5072394;28;20464;-80
2021/10/14 01:02:43;;;;;;;19.97;18.30;;;6.20;99.90;;;;;;5072432;28;20455;-81
2021/10/14 01:05:10;;;;;;;21.03;19.37;;;6.10;99.90;;;;;;5072475;28;20506;-81
2021/10/14 01:07:36;;;;;;;21.30;19.50;;;6.10;99.90;;;;;;5072579;28;20500;-80
2021/10/14 01:10:05;;;;;;;21.50;19.80;;;6.10;99.90;;;;;;5072598;28;20454;-78
2021/10/14 01:12:34;;;;;;;21.07;19.20;;;6.10;99.90;;;;;;5072225;28;20450;-81
2021/10/14 01:15:00;;;;;;;22.53;19.17;;;6.10;99.90;;;;;;5072179;28;20500;-80
2021/10/14 01:17:28;;;;;;;21.30;19.67;;;6.10;99.90;;;;;;5072182;28;20454;-80
2021/10/14 01:19:57;;;;;;;20.83;18.80;;;6.10;99.90;;;;;;5072054;28;20482;-80
2021/10/14 01:22:24;;;;;;;20.17;18.67;;;6.10;99.90;;;;;;5071993;28;20453;-81
2021/10/14 01:24:50;;;;;;;20.47;18.87;;;6.10;99.90;;;;;;5071864;28;20494;-83
2021/10/14 01:27:17;;;;;;;18.93;17.43;;;6.00;99.90;;;;;;5072183;28;20455;-87
2021/10/14 01:29:44;;;;;;;19.17;17.87;;;6.00;99.90;;;;;;5071893;28;20485;-87
2021/10/14 01:32:11;;;;;;;19.53;18.13;;;6.00;99.90;;;;;;5072402;28;21109;-88
2021/10/14 01:34:38;;;;;;;17.13;15.93;;;6.00;99.90;;;;;;5071696;28;20504;-86
2021/10/14 01:37:06;;;;;;;17.43;16.23;;;6.00;99.90;;;;;;5072331;28;20451;-84
2021/10/14 01:39:32;;;;;;;19.00;17.10;;;6.10;99.90;;;;;;5072069;28;20466;-86
2021/10/14 01:41:59;;;;;;;18.30;16.80;;;6.10;99.90;;;;;;5077969;28;20456;-85
2021/10/14 01:44:26;;;;;;;18.73;17.43;;;6.00;99.90;;;;;;5094669;28;20522;-85
2021/10/14 01:46:52;;;;;;;20.67;19.07;;;6.00;99.90;;;;;;5096760;28;20429;-84
2021/10/14 01:49:19;;;;;;;20.33;18.53;;;5.90;99.90;;;;;;5093477;28;20440;-84
2021/10/14 01:51:46;;;;;;;20.80;19.20;;;5.90;99.90;;;;;;5073706;28;20454;-85
2021/10/14 01:54:14;;;;;;;19.43;17.90;;;5.90;99.90;;;;;;5074334;28;20439;-84
2021/10/14 01:56:41;;;;;;;20.30;18.60;;;5.90;99.90;;;;;;5073501;28;20950;-86
2021/10/14 01:59:07;;;;;;;20.67;18.67;;;6.00;99.90;;;;;;5072509;28;20466;-86
2021/10/14 02:01:35;;;;;;;22.70;20.90;;;5.90;99.90;;;;;;5072355;28;20447;-86
2021/10/14 02:04:03;;;;;;;23.70;22.00;;;5.90;99.90;;;;;;5072248;28;20461;-86
2021/10/14 02:06:30;;;;;;;24.27;22.20;;;6.00;99.90;;;;;;5071880;28;20450;-86
2021/10/14 02:08:56;;;;;;;21.67;19.97;;;6.00;99.90;;;;;;5071936;28;20452;-87
2021/10/14 02:11:24;;;;;;;23.63;21.67;;;6.00;99.90;;;;;;5071634;28;20456;-80
2021/10/14 02:13:51;;;;;;;23.57;21.63;;;5.90;99.90;;;;;;5070044;28;21284;-80
2021/10/14 02:16:17;;;;;;;24.73;22.70;;;5.90;99.90;;;;;;5071288;28;20462;-80
2021/10/14 02:18:44;;;;;;;21.97;20.13;;;5.90;99.90;;;;;;5071295;28;20447;-80
2021/10/14 02:21:11;;;;;;;22.63;20.70;;;5.90;99.90;;;;;;5071002;28;20521;-80
2021/10/14 02:23:38;;;;;;;21.40;19.90;;;5.90;99.90;;;;;;5071125;28;20555;-80
2021/10/14 02:26:05;;;;;;;23.50;21.80;;;5.80;99.90;;;;;;5071245;28;20490;-82
2021/10/14 02:28:33;;;;;;;22.30;20.70;;;5.80;99.90;;;;;;5070994;28;20543;-81
2021/10/14 02:30:59;;;;;;;19.67;18.03;;;5.80;99.90;;;;;;5070929;28;20458;-82
2021/10/14 02:33:26;;;;;;;22.57;20.70;;;5.80;99.90;;;;;;5070994;28;20457;-83
2021/10/14 02:35:53;;;;;;;22.63;21.10;;;5.80;99.90;;;;;;5071066;28;20442;-82
2021/10/14 02:38:19;;;;;;;23.20;21.40;;;5.70;99.90;;;;;;5071143;28;20521;-81
2021/10/14 02:40:46;;;;;;;21.60;20.00;;;5.70;99.90;;;;;;5071047;28;20453;-81
2021/10/14 02:43:13;;;;;;;21.80;20.00;;;5.70;99.90;;;;;;5071000;28;20457;-80
2021/10/14 02:45:41;;;;;;;22.83;21.23;;;5.70;99.90;;;;;;5072456;28;20627;-79
2021/10/14 02:48:07;;;;;;;21.13;19.63;;;5.60;99.90;;;;;;5075195;28;20470;-80
2021/10/14 02:50:34;;;;;;;23.03;21.20;;;5.60;99.90;;;;;;5075175;28;20450;-80
2021/10/14 02:53:01;;;;;;;21.17;19.77;;;5.60;99.90;;;;;;5074950;28;20457;-81
2021/10/14 02:55:27;;;;;;;21.53;19.93;;;5.70;99.90;;;;;;5074936;28;20469;-80
2021/10/14 02:57:54;;;;;;;21.40;19.90;;;5.60;99.90;;;;;;5074941;28;20455;-80
2021/10/14 03:00:21;;;;;;;22.00;20.50;;;5.60;99.90;;;;;;5075007;28;20454;-80
2021/10/14 03:02:49;;;;;;;22.60;20.90;;;5.60;99.90;;;;;;5074983;28;20449;-82
2021/10/14 03:05:15;;;;;;;22.97;20.80;;;5.60;99.90;;;;;;5074829;28;20818;-79
2021/10/14 03:07:42;;;;;;;23.47;21.60;;;5.60;99.90;;;;;;5074598;28;20450;-79
2021/10/14 03:10:09;;;;;;;23.23;21.30;;;5.60;99.90;;;;;;5074750;28;20455;-81
2021/10/14 03:12:36;;;;;;;23.80;21.90;;;5.60;99.90;;;;;;5074727;28;20450;-80
2021/10/14 03:15:04;;;;;;;27.93;25.73;;;5.60;99.90;;;;;;5074656;28;20940;-81
2021/10/14 03:17:30;;;;;;;25.00;22.50;;;5.60;99.90;;;;;;5074311;28;20454;-81
2021/10/14 03:19:58;;;;;;;24.90;22.70;;;5.70;99.90;;;;;;5074428;28;20469;-81
2021/10/14 03:22:25;;;;;;;24.10;21.90;;;5.60;99.90;;;;;;5074470;28;20939;-81
2021/10/14 03:24:52;;;;;;;23.67;21.67;;;5.60;99.90;;;;;;5074407;28;20528;-81
2021/10/14 03:27:19;;;;;;;23.70;21.23;;;5.60;99.90;;;;;;5074600;28;20457;-82
2021/10/14 03:29:45;;;;;;;22.50;20.80;;;5.60;99.90;;;;;;5074380;28;20485;-81
2021/10/14 03:32:12;;;;;;;22.60;20.60;;;5.50;99.90;;;;;;5074256;28;20452;-82
2021/10/14 03:34:39;;;;;;;22.97;21.37;;;5.50;99.90;;;;;;5074280;28;20480;-81
2021/10/14 03:37:07;;;;;;;23.17;21.50;;;5.50;99.90;;;;;;5074336;28;20448;-82
2021/10/14 03:39:33;;;;;;;21.87;20.40;;;5.50;99.90;;;;;;5074249;28;20453;-79
2021/10/14 03:42:00;;;;;;;24.20;22.37;;;5.50;99.90;;;;;;5074081;28;20457;-80
2021/10/14 03:44:26;;;;;;;25.30;22.70;;;5.50;99.90;;;;;;5074270;28;20496;-80
2021/10/14 03:46:53;;;;;;;22.50;20.80;;;5.50;99.90;;;;;;5074167;28;20480;-80
2021/10/14 03:49:20;;;;;;;20.67;19.20;;;5.40;99.90;;;;;;5074710;28;20449;-84
2021/10/14 03:51:47;;;;;;;21.30;19.80;;;5.50;99.90;;;;;;5074415;28;20450;-87
2021/10/14 03:54:15;;;;;;;23.23;21.57;;;5.40;99.90;;;;;;5075138;28;20449;-87
2021/10/14 03:56:41;;;;;;;23.20;21.50;;;5.40;99.90;;;;;;5061106;28;20475;-89
2021/10/14 03:59:08;;;;;;;20.80;19.47;;;5.40;99.90;;;;;;5060745;28;20452;-91
2021/10/14 04:01:34;;;;;;;22.50;20.80;;;5.40;99.90;;;;;;5054999;28;20451;-90
2021/10/14 04:04:01;;;;;;;22.53;20.90;;;5.40;99.90;;;;;;5059020;28;20447;-90
2021/10/14 04:06:28;;;;;;;21.30;19.80;;;5.40;99.90;;;;;;5055102;28;20487;-86
2021/10/14 04:08:54;;;;;;;21.67;20.07;;;5.40;99.90;;;;;;5054246;28;20458;-87
2021/10/14 04:11:22;;;;;;;20.17;19.03;;;5.40;99.90;;;;;;5055243;28;20467;-90
2021/10/14 04:13:50;;;;;;;21.00;19.60;;;5.40;99.90;;;;;;5056147;28;20451;-90
2021/10/14 04:16:17;;;;;;;21.07;19.77;;;5.40;99.90;;;;;;5057327;28;20453;-90
2021/10/14 04:18:43;;;;;;;21.40;19.90;;;5.50;99.90;;;;;;5059440;28;20448;-88
2021/10/14 04:37:47;;;;;;;23.07;21.43;;;5.70;99.90;;;;;;5790063;22;20585;-86
2021/10/14 04:40:14;;;;;;;22.97;21.37;;;5.80;99.90;;;;;;5054353;28;20449;-82
2021/10/14 04:43:25;;;;;;;;;;;;;;;;;;;;;
2021/10/14 04:46:17;;;;;;;19.87;18.60;;;5.80;99.90;;;;;;4997394;28;20476;-91
2021/10/14 04:48:44;;;;;;;20.10;18.90;;;5.70;99.90;;;;;;5051433;28;20453;-83
2021/10/14 04:51:11;;;;;;;20.07;18.77;;;5.80;99.90;;;;;;5053460;28;20540;-83
2021/10/14 04:53:39;;;;;;;21.37;19.77;;;5.80;99.90;;;;;;5053060;28;20463;-80
2021/10/14 04:56:06;;;;;;;23.93;21.97;;;5.80;99.90;;;;;;5052778;28;20458;-81
2021/10/14 04:58:33;;;;;;;21.70;20.00;;;5.70;99.90;;;;;;5052851;28;20455;-82
2021/10/14 05:00:59;;;;;;;21.43;20.10;;;5.80;99.90;;;;;;5052660;28;20946;-83
2021/10/14 05:03:26;;;;;;;21.40;19.90;;;5.80;99.90;;;;;;5052978;28;20458;-84
2021/10/14 05:05:53;;;;;;;20.10;19.00;;;5.80;99.90;;;;;;5052515;28;20479;-83
2021/10/14 05:08:20;;;;;;;19.10;17.90;;;5.80;99.90;;;;;;5052134;28;20990;-82
2021/10/14 05:10:48;;;;;;;21.00;19.60;;;5.80;99.90;;;;;;5052379;28;20449;-81
2021/10/14 05:13:15;;;;;;;19.97;18.27;;;5.90;99.90;;;;;;5052404;28;20961;-81
2021/10/14 05:15:42;;;;;;;19.23;17.83;;;5.90;99.90;;;;;;5053095;28;21135;-81
2021/10/14 05:18:09;;;;;;;18.87;17.77;;;6.00;99.90;;;;;;5052629;28;20463;-82
2021/10/14 05:20:36;;;;;;;17.93;16.90;;;6.10;99.90;;;;;;5041745;28;20496;-82
2021/10/14 05:23:02;;;;;;;17.77;16.77;;;6.10;99.90;;;;;;5032453;28;20457;-80
2021/10/14 05:25:29;;;;;;;17.77;16.63;;;6.10;99.90;;;;;;5032228;28;20539;-80
2021/10/14 05:27:58;;;;;;;17.80;16.70;;;6.20;99.90;;;;;;5033239;28;20456;-79
2021/10/14 05:30:24;;;;;;;17.93;16.63;;;6.20;99.90;;;;;;5032232;28;20488;-79
2021/10/14 05:32:51;;;;;;;17.77;16.57;;;6.30;99.90;;;;;;5032049;28;21001;-76
2021/10/14 05:35:18;;;;;;;18.63;16.83;;;6.30;99.90;;;;;;5031583;28;20514;-75
2021/10/14 05:37:45;;;;;;;15.67;14.73;;;6.30;99.90;;;;;;5031404;28;20844;-74
2021/10/14 05:40:12;;;;;;;16.50;15.60;;;6.40;99.90;;;;;;5031816;28;20456;-76
2021/10/14 05:42:38;;;;;;;19.93;18.53;;;6.30;99.90;;;;;;5031962;28;20447;-78
2021/10/14 05:45:08;;;;;;;16.60;15.70;;;6.40;99.90;;;;;;5031602;28;20445;-76
2021/10/14 05:47:35;;;;;;;19.03;17.70;;;6.40;99.90;;;;;;5031883;28;20457;-77
2021/10/14 05:50:01;;;;;;;17.30;16.30;;;6.40;99.90;;;;;;5031772;28;20456;-77
2021/10/14 05:52:28;;;;;;;15.87;14.97;;;6.40;99.90;;;;;;5031509;28;20452;-75
2021/10/14 05:54:55;;;;;;;19.13;17.80;;;6.40;99.90;;;;;;5031941;28;20516;-75
2021/10/14 05:57:22;;;;;;;19.10;17.80;;;6.40;99.90;;;;;;5031162;28;20526;-76
2021/10/14 05:59:49;;;;;;;16.77;15.40;;;6.40;99.90;;;;;;5030093;28;20478;-76
2021/10/14 06:02:17;;;;;;;16.70;15.50;;;6.40;99.90;;;;;;5029639;28;20455;-77
2021/10/14 06:04:44;;;;;;;17.60;16.47;;;6.40;99.90;;;;;;5027188;28;20446;-76
2021/10/14 06:07:10;;;;;;;17.70;16.37;;;6.40;99.90;;;;;;5029469;28;20476;-76
2021/10/14 06:09:37;;;;;;;17.37;16.13;;;6.30;99.90;;;;;;5029394;28;20457;-76
2021/10/14 06:12:04;;;;;;;16.20;15.00;;;6.40;99.90;;;;;;5029817;28;20456;-75
2021/10/14 06:14:31;;;;;;;19.63;18.20;;;6.30;99.90;;;;;;5030696;28;20445;-75
2021/10/14 06:16:57;;;;;;;17.40;16.30;;;6.40;99.90;;;;;;5031218;28;20444;-77
2021/10/14 06:19:25;;;;;;;17.37;16.07;;;6.40;99.90;;;;;;5030698;28;20459;-76
2021/10/14 06:21:52;;;;;;;17.70;16.40;;;6.50;99.90;;;;;;5029443;28;20930;-78
2021/10/14 06:24:19;;;;;;;19.10;17.67;;;6.60;99.90;;;;;;5029397;28;20447;-77
2021/10/14 06:26:45;;;;;;;17.83;16.30;;;6.70;99.90;;;;;;5029189;28;20487;-77
2021/10/14 06:29:13;;;;;;;17.67;16.57;;;6.80;99.90;;;;;;5029604;28;20456;-77
2021/10/14 06:31:40;;;;;;;16.67;15.27;;;6.80;99.90;;;;;;5029304;28;20480;-75
2021/10/14 06:34:07;;;;;;;17.03;16.13;;;6.80;99.90;;;;;;5029099;28;20452;-76
2021/10/14 06:36:35;;;;;;;18.67;17.10;;;6.80;99.90;;;;;;5028990;28;20528;-77
2021/10/14 06:39:02;;;;;;;18.30;16.90;;;6.80;99.90;;;;;;5028755;28;20943;-75
2021/10/14 06:41:29;;;;;;;16.10;15.03;;;6.80;99.90;;;;;;5028901;28;20445;-76
2021/10/14 06:43:55;;;;;;;16.70;15.77;;;6.90;99.90;;;;;;5028980;28;20453;-76
2021/10/14 06:46:22;;;;;;;17.33;16.27;;;7.00;99.90;;;;;;5027227;28;20483;-75
2021/10/14 06:48:49;;;;;;;16.90;15.60;;;6.90;99.90;;;;;;5030421;28;20457;-75
2021/10/14 06:51:16;;;;;;;17.30;16.10;;;6.90;99.90;;;;;;5030333;28;20456;-75
2021/10/14 06:53:44;;;;;;;17.83;16.53;;;6.80;99.90;;;;;;5030292;28;20854;-75
2021/10/14 06:56:10;;;;;;;16.70;15.67;;;6.80;99.90;;;;;;5030410;28;20459;-75
2021/10/14 06:58:37;;;;;;;17.20;16.20;;;6.80;99.90;;;;;;5030274;28;20453;-75
2021/10/14 07:01:04;;;;;;;16.33;15.50;;;6.90;99.90;;;;;;5030255;28;20456;-75
2021/10/14 07:03:30;;;;;;;16.90;15.73;;;6.90;99.90;;;;;;5030326;28;20801;-75
2021/10/14 07:05:57;;;;;;;16.13;14.97;;;7.00;99.90;;;;;;5030241;28;20998;-75
2021/10/14 07:08:24;;;;;;;16.93;15.70;;;7.10;99.90;;;;;;5030342;28;20487;-75
2021/10/14 07:10:52;;;;;;;15.60;14.70;;;7.30;99.90;;;;;;5030387;28;20475;-75
2021/10/14 07:13:19;;;;;;;15.80;14.70;;;7.50;99.90;;;;;;5030314;28;20494;-75
2021/10/14 07:15:46;;;;;;;16.70;15.80;;;7.50;99.90;;;;;;5030233;28;20460;-75
2021/10/14 07:18:12;;;;;;;16.23;15.30;;;7.50;99.90;;;;;;5030204;28;20718;-76
2021/10/14 07:20:39;;;;;;;17.23;16.27;;;7.40;99.90;;;;;;5030120;28;20464;-74
2021/10/14 07:23:11;;;;;;;16.63;15.30;;;7.40;99.90;;;;;;5030188;28;20464;-75
2021/10/14 07:25:38;;;;;;;16.97;15.80;;;7.50;99.90;;;;;;5030110;28;20782;-74
2021/10/14 07:28:06;;;;;;;18.23;17.03;;;7.60;99.90;;;;;;5030045;28;20484;-74
2021/10/14 07:30:34;;;;;;;16.20;15.20;;;7.50;99.90;;;;;;5030129;28;20483;-75
2021/10/14 07:33:03;;;;;;;17.50;16.40;;;7.60;99.90;;;;;;5027812;28;20495;-75
2021/10/14 07:35:31;;;;;;;16.97;15.67;;;7.80;99.90;;;;;;5033969;28;20543;-75
2021/10/14 07:37:58;;;;;;;16.77;15.67;;;7.90;99.90;;;;;;5033842;28;20469;-75
2021/10/14 07:40:25;;;;;;;16.90;15.70;;;8.10;99.90;;;;;;5034068;28;20523;-75
2021/10/14 07:42:51;;;;;;;18.40;17.00;;;8.30;99.90;;;;;;5034371;28;20464;-75
2021/10/14 07:45:20;;;;;;;16.87;15.90;;;8.30;99.90;;;;;;5034891;28;20459;-75
2021/10/14 07:47:47;;;;;;;18.03;16.63;;;8.20;99.90;;;;;;5033850;28;20484;-75
2021/10/14 07:50:14;;;;;;;15.90;14.83;;;8.30;99.90;;;;;;5033787;28;20910;-75
2021/10/14 07:52:42;;;;;;;17.17;16.07;;;8.60;99.90;;;;;;5033777;28;20472;-75
2021/10/14 07:55:09;;;;;;;15.57;14.67;;;8.70;99.90;;;;;;5033644;28;20974;-75
2021/10/14 07:57:36;;;;;;;16.40;15.40;;;8.60;99.90;;;;;;5033794;28;20452;-76
2021/10/14 08:00:04;;;;;;;17.67;16.40;;;8.60;99.90;;;;;;5033478;28;20445;-76
2021/10/14 08:02:32;;;;;;;17.00;15.73;;;8.60;99.90;;;;;;5033584;28;20445;-75
2021/10/14 08:04:59;;;;;;;16.33;15.30;;;8.60;99.90;;;;;;5031642;28;20465;-75
2021/10/14 08:07:26;;;;;;;13.97;13.23;;;8.80;99.90;;;;;;5033266;28;20500;-74
2021/10/14 08:09:53;;;;;;;17.07;16.10;;;8.80;99.90;;;;;;5033411;28;20456;-75
2021/10/14 08:12:20;;;;;;;14.53;13.73;;;9.00;99.90;;;;;;5033461;28;20456;-75
2021/10/14 08:14:47;;;;;;;15.80;14.70;;;9.40;99.90;;;;;;5033424;28;20449;-76
2021/10/14 08:17:13;;;;;;;18.13;16.53;;;9.60;99.90;;;;;;5033325;28;20447;-76
2021/10/14 08:19:41;;;;;;;16.77;15.47;;;9.80;99.90;;;;;;5033133;28;20465;-76
2021/10/14 08:22:08;;;;;;;15.53;13.57;;;10.10;99.90;;;;;;5033101;28;20476;-76
2021/10/14 08:24:37;;;;;;;16.33;15.33;;;10.20;99.90;;;;;;5033389;28;20459;-76
2021/10/14 08:27:05;;;;;;;14.87;13.63;;;10.60;99.90;;;;;;5033189;28;20477;-76
2021/10/14 08:29:31;;;;;;;14.80;13.90;;;10.70;99.90;;;;;;5033053;28;20511;-76
2021/10/14 08:32:01;;;;;;;14.63;13.80;;;10.70;99.90;;;;;;5032775;28;20461;-76
2021/10/14 08:34:28;;;;;;;14.90;13.63;;;10.80;99.90;;;;;;5032941;28;20460;-75
2021/10/14 08:36:56;;;;;;;14.43;13.53;;;10.90;99.90;;;;;;5032909;28;20459;-76
2021/10/14 08:39:23;;;;;;;13.90;12.90;;;11.10;99.90;;;;;;5032774;28;20615;-75
2021/10/14 08:41:50;;;;;;;14.57;13.87;;;11.10;99.90;;;;;;5032826;28;20805;-75
2021/10/14 08:44:25;;;;;;;15.30;14.50;;;11.30;99.90;;;;;;5032507;28;20452;-75
2021/10/14 08:46:53;;;;;;;14.80;14.00;;;11.90;99.90;;;;;;5012997;28;20536;-75
2021/10/14 08:49:21;;;;;;;14.80;14.00;;;12.40;99.90;;;;;;5013060;28;20458;-75
2021/10/14 08:51:48;;;;;;;15.63;14.83;;;12.90;99.90;;;;;;5012844;28;20524;-73
2021/10/14 08:54:16;;;;;;;15.10;14.17;;;13.50;99.90;;;;;;5012924;28;20454;-74
2021/10/14 08:56:44;;;;;;;15.30;14.40;;;13.60;99.90;;;;;;5012588;28;20457;-73
2021/10/14 08:59:13;;;;;;;14.23;13.43;;;14.20;99.90;;;;;;5012738;28;20454;-73
2021/10/14 09:01:41;;;;;;;14.30;13.60;;;14.00;99.90;;;;;;5012315;28;20489;-72
2021/10/14 09:04:15;;;;;;;14.30;13.43;;;14.90;99.90;;;;;;5012378;28;20512;-72
2021/10/14 09:06:42;;;;;;;16.50;15.43;;;15.50;99.90;;;;;;5012453;28;20495;-75
2021/10/14 09:09:09;;;;;;;14.77;14.07;;;15.70;99.30;;;;;;5012453;28;20473;-75
2021/10/14 09:11:37;;;;;;;18.13;14.40;;;16.00;98.80;;;;;;5012518;28;20454;-75
2021/10/14 09:14:08;;;;;;;17.60;16.60;;;16.40;99.10;;;;;;5012350;28;20461;-76
2021/10/14 09:16:36;;;;;;;14.67;13.60;;;16.70;97.30;;;;;;5012394;28;20450;-75
2021/10/14 09:19:15;;;;;;;15.40;14.47;;;16.40;97.30;;;;;;5012326;28;20518;-75
2021/10/14 09:21:43;;;;;;;16.50;15.50;;;15.90;97.80;;;;;;5012002;28;20504;-76
2021/10/14 09:24:28;;;;;;;16.20;15.00;;;15.80;97.80;;;;;;5012072;28;20457;-76
2021/10/14 09:26:57;;;;;;;16.57;15.20;;;15.50;98.70;;;;;;5011713;28;20851;-76
2021/10/14 09:29:27;;;;;;;17.80;16.40;;;15.20;99.20;;;;;;5011869;28;20457;-76
2021/10/14 09:31:56;;;;;;;15.90;15.00;;;15.10;99.20;;;;;;5011834;28;20488;-75
2021/10/14 09:34:34;;;;;;;15.80;14.63;;;15.40;98.40;;;;;;5011915;28;20800;-76
2021/10/14 09:37:03;;;;;;;15.13;14.07;;;15.60;98.30;;;;;;5011953;28;20442;-76
2021/10/14 09:39:30;;;;;;;15.57;14.57;;;15.40;98.80;;;;;;5011849;28;20488;-76
2021/10/14 09:41:58;;;;;;;14.67;13.87;;;15.90;97.50;;;;;;5011823;28;20454;-76
2021/10/14 09:44:26;;;;;;;15.20;14.20;;;15.60;97.80;;;;;;5012019;28;20458;-76
2021/10/14 09:46:54;;;;;;;16.83;15.63;;;15.70;98.20;;;;;;5031611;28;20484;-75
2021/10/14 09:49:27;;;;;;;17.23;15.57;;;15.90;98.50;;;;;;5031809;28;20969;-74
2021/10/14 09:51:56;;;;;;;14.97;14.07;;;16.50;97.40;;;;;;5031383;28;20488;-73
2021/10/14 09:54:23;;;;;;;16.30;15.07;;;16.70;96.70;;;;;;5031035;28;20461;-75
2021/10/14 09:56:50;;;;;;;15.63;14.73;;;17.50;95.00;;;;;;5031432;28;20452;-75
2021/10/14 09:59:18;;;;;;;15.33;14.13;;;17.40;94.50;;;;;;5031572;28;20463;-75
2021/10/14 10:01:45;;;;;;;15.67;14.73;;;17.10;94.80;;;;;;5031767;28;20937;-75
2021/10/14 10:04:12;;;;;;;15.77;14.67;;;17.10;94.70;;;;;;5031757;28;20464;-75
2021/10/14 10:06:39;;;;;;;15.40;14.60;;;17.00;94.60;;;;;;5031443;28;20767;-75
2021/10/14 10:09:14;;;;;;;16.27;15.10;;;17.00;94.50;;;;;;5031625;28;20472;-74
2021/10/14 10:11:44;;;;;;;15.47;14.33;;;17.20;95.00;;;;;;5031554;28;20468;-75
2021/10/14 10:14:11;;;;;;;15.50;14.57;;;17.90;93.00;;;;;;5031333;28;20464;-76
2021/10/14 10:16:54;;;;;;;14.67;13.80;;;18.70;92.80;;;;;;5031594;28;20445;-75
2021/10/14 10:19:40;;;;;;;14.90;14.00;;;18.70;91.20;;;;;;5031484;28;20926;-76
2021/10/14 10:22:08;;;;;;;14.73;13.73;;;17.80;92.10;;;;;;5031009;28;20452;-75
2021/10/14 10:24:35;;;;;;;13.83;13.03;;;18.30;92.30;;;;;;5031293;28;20449;-76
2021/10/14 10:27:07;;;;;;;14.13;13.33;;;18.40;91.00;;;;;;5031217;28;20477;-76
2021/10/14 10:29:45;;;;;;;14.97;13.70;;;17.90;91.80;;;;;;5031517;28;20489;-74
2021/10/14 10:32:22;;;;;;;13.83;13.00;;;18.60;91.20;;;;;;5031125;28;20468;-72
2021/10/14 10:34:57;;;;;;;15.30;14.50;;;19.00;90.10;;;;;;5031440;28;20522;-74
2021/10/14 10:37:38;;;;;;;15.03;14.07;;;19.30;89.80;;;;;;5031065;28;20760;-75
2021/10/14 10:40:25;;;;;;;14.83;14.03;;;21.20;86.40;;;;;;5031501;28;20884;-74
2021/10/14 10:43:11;;;;;;;15.03;14.23;;;21.90;79.70;;;;;;5031191;28;20453;-76
2021/10/14 10:45:52;;;;;;;15.90;15.10;;;22.70;77.00;;;;;;5030829;28;20528;-74
2021/10/14 10:48:24;;;;;;;15.30;14.50;;;23.80;74.40;;;;;;5031064;28;20488;-75
2021/10/14 10:50:54;;;;;;;14.80;14.07;;;24.10;72.40;;;;;;5031064;28;20857;-74
2021/10/14 10:53:22;;;;;;;17.07;16.07;;;24.50;67.80;;;;;;5031162;28;20491;-74
2021/10/14 10:55:51;;;;;;;15.40;14.50;;;24.00;68.00;;;;;;5031181;28;20456;-76
2021/10/14 10:58:42;;;;;;;14.90;14.30;;;23.10;68.10;;;;;;5031116;28;20445;-75
2021/10/14 11:01:08;;;;;;;14.53;13.70;;;23.00;69.10;;;;;;5031902;28;20452;-75
2021/10/14 11:03:37;;;;;;;14.70;14.10;;;23.30;69.20;;;;;;5031952;28;20506;-74
2021/10/14 11:06:10;;;;;;;14.87;14.07;;;24.80;65.90;;;;;;5031829;28;20453;-74
2021/10/14 11:08:37;;;;;;;14.63;13.83;;;26.10;61.50;;;;;;5034924;28;20491;-75
2021/10/14 11:11:05;;;;;;;14.73;14.13;;;26.70;58.20;;;;;;5034951;28;20510;-75
2021/10/14 11:13:34;;;;;;;14.30;13.60;;;26.00;57.00;;;;;;5034762;28;20449;-75
2021/10/14 11:16:01;;;;;;;15.03;14.10;;;25.50;58.30;;;;;;5034719;28;20877;-75
2021/10/14 11:18:29;;;;;;;14.67;14.03;;;25.70;58.90;;;;;;5034690;28;20484;-75
2021/10/14 11:20:59;;;;;;;14.03;13.53;;;26.30;57.10;;;;;;5034518;28;20472;-77
2021/10/14 11:23:28;;;;;;;15.40;14.67;;;26.40;56.70;;;;;;5034490;28;20460;-77
2021/10/14 11:26:04;;;;;;;15.07;14.10;;;26.50;55.50;;;;;;5034497;28;20448;-75
2021/10/14 11:28:47;;;;;;;15.57;14.83;;;26.40;55.20;;;;;;5034436;28;20807;-77
2021/10/14 11:31:22;;;;;;;15.60;14.90;;;26.20;56.30;;;;;;5034014;28;20440;-77
2021/10/14 11:33:48;;;;;;;14.70;14.00;;;26.30;55.20;;;;;;5034150;28;20437;-74
2021/10/14 11:36:19;;;;;;;14.70;14.10;;;26.80;54.00;;;;;;5033787;28;20449;-76
2021/10/14 11:38:57;;;;;;;14.37;13.63;;;26.70;53.60;;;;;;5033693;28;20469;-76
2021/10/14 11:41:23;;;;;;;15.23;14.43;;;25.70;54.60;;;;;;5032070;28;20463;-76
2021/10/14 11:43:55;;;;;;;15.33;14.53;;;25.80;55.30;;;;;;5033894;28;20520;-77
2021/10/14 11:46:24;;;;;;;13.93;13.43;;;25.70;55.40;;;;;;5031693;28;20473;-76
2021/10/14 11:48:55;;;;;;;13.93;12.83;;;25.10;55.70;;;;;;5033816;28;20535;-76
2021/10/14 11:51:23;;;;;;;14.10;13.37;;;25.10;56.20;;;;;;5033693;28;20810;-77
2021/10/14 11:54:00;;;;;;;14.03;13.43;;;24.80;57.40;;;;;;5034174;28;20453;-77
2021/10/14 11:56:27;;;;;;;14.70;13.87;;;24.10;57.10;;;;;;5034143;28;20453;-75
2021/10/14 11:58:54;;;;;;;14.90;14.20;;;23.40;59.70;;;;;;5034246;28;20452;-75
2021/10/14 12:01:24;;;;;;;15.40;14.47;;;23.00;61.00;;;;;;5034109;28;20543;-79
2021/10/14 12:03:52;;;;;;;13.43;12.57;;;22.50;62.20;;;;;;5034055;28;20453;-79
2021/10/14 12:06:20;;;;;;;13.80;13.10;;;22.50;62.00;;;;;;5034092;28;20893;-82
2021/10/14 12:08:49;;;;;;;13.77;13.10;;;22.30;62.70;;;;;;5033737;28;20488;-79
2021/10/14 12:11:17;;;;;;;14.63;13.83;;;22.10;64.30;;;;;;5033807;28;20468;-77
2021/10/14 12:13:44;;;;;;;14.80;14.00;;;21.60;65.50;;;;;;5033693;28;20511;-76
2021/10/14 12:16:13;;;;;;;14.30;13.67;;;21.60;66.30;;;;;;5033599;28;20448;-75
2021/10/14 12:18:40;;;;;;;14.50;13.70;;;21.60;67.00;;;;;;5033079;28;20449;-76
2021/10/14 12:21:28;;;;;;;14.90;14.10;;;21.70;67.00;;;;;;5033642;28;20499;-76
2021/10/14 12:24:12;;;;;;;13.50;12.90;;;21.10;67.70;;;;;;5033557;28;20470;-76
2021/10/14 12:26:41;;;;;;;15.47;14.47;;;21.50;67.50;;;;;;5033501;28;20449;-75
2021/10/14 12:29:29;;;;;;;14.33;13.63;;;21.70;67.80;;;;;;5033340;28;20485;-78
2021/10/14 12:32:13;;;;;;;14.50;13.70;;;21.50;67.30;;;;;;5033203;28;20457;-75
2021/10/14 12:34:58;;;;;;;14.07;13.47;;;20.60;70.90;;;;;;5031308;28;20951;-75
2021/10/14 12:37:30;;;;;;;14.33;13.47;;;20.70;71.40;;;;;;5032856;28;20483;-75
2021/10/14 12:40:18;;;;;;;14.63;13.63;;;20.70;71.10;;;;;;5033180;28;20833;-75
2021/10/14 12:42:52;;;;;;;14.63;13.97;;;20.80;71.70;;;;;;5033197;28;20475;-75
2021/10/14 12:48:33;;;;;;;14.13;12.87;;;20.10;74.10;;;;;;4971812;28;20486;-75
2021/10/14 12:51:12;;;;;;;12.97;12.37;;;20.20;74.20;;;;;;5022359;28;20460;-74
2021/10/14 12:53:42;;;;;;;13.13;12.43;;;20.40;74.80;;;;;;5033195;28;20575;-75
2021/10/14 12:56:12;;;;;;;15.13;14.27;;;20.40;73.60;;;;;;5032974;28;20452;-74
2021/10/14 12:58:39;;;;;;;13.13;12.57;;;20.30;75.20;;;;;;5032922;28;20471;-75
2021/10/14 13:01:07;;;;;;;13.60;12.93;;;20.20;74.80;;;;;;5032672;28;20476;-74